sensor_id;sensor_type;location;lat;lon;timestamp;temperature;humidity
5150;DHT22;2593;52.466;13.436;2022-07-06T00:01:33;18.90;1.00
5150;DHT22;2593;52.466;13.436;2022-07-06T00:04:04;18.80;1.00
5150;DHT22;2593;52.466;13.436;2022-07-06T00:06:30;18.80;1.00
5150;DHT22;2593;52.466;13.436;2022-07-06T00:08:56;18.70;1.00
5150;DHT22;2593;52.466;13.436;2022-07-06T00:11:22;18.60;1.00
5150;DHT22;2593;52.466;13.436;2022-07-06T00:13:48;18.70;1.00
5150;DHT22;2593;52.466;13.436;2022-07-06T00:16:14;18.70;1.00
5150;DHT22;2593;52.466;13.436;2022-07-06T00:18:50;18.70;1.00
5150;DHT22;2593;52.466;13.436;2022-07-06T00:21:16;18.70;1.00
5150;DHT22;2593;52.466;13.436;2022-07-06T00:23:42;18.60;1.00
5150;DHT22;2593;52.466;13.436;2022-07-06T00:26:07;18.60;1.00
5150;DHT22;2593;52.466;13.436;2022-07-06T00:28:33;18.50;1.00
5150;DHT22;2593;52.466;13.436;2022-07-06T00:31:02;18.60;1.00
5150;DHT22;2593;52.466;13.436;2022-07-06T00:33:28;18.60;1.00
5150;DHT22;2593;52.466;13.436;2022-07-06T00:35:53;18.50;1.00
5150;DHT22;2593;52.466;13.436;2022-07-06T00:38:19;18.60;1.00
5150;DHT22;2593;52.466;13.436;2022-07-06T00:40:45;18.50;1.00
5150;DHT22;2593;52.466;13.436;2022-07-06T00:43:10;18.60;1.00
5150;DHT22;2593;52.466;13.436;2022-07-06T00:45:36;18.50;1.00
5150;DHT22;2593;52.466;13.436;2022-07-06T00:48:02;18.50;1.00
5150;DHT22;2593;52.466;13.436;2022-07-06T00:50:27;18.50;1.00
5150;DHT22;2593;52.466;13.436;2022-07-06T00:53:02;18.40;1.00
5150;DHT22;2593;52.466;13.436;2022-07-06T00:55:31;18.40;1.00
5150;DHT22;2593;52.466;13.436;2022-07-06T00:57:57;18.40;1.00
5150;DHT22;2593;52.466;13.436;2022-07-06T01:00:25;18.40;1.00
5150;DHT22;2593;52.466;13.436;2022-07-06T01:02:51;18.40;1.00
5150;DHT22;2593;52.466;13.436;2022-07-06T01:05:18;18.40;1.00
5150;DHT22;2593;52.466;13.436;2022-07-06T01:07:45;18.50;1.00
5150;DHT22;2593;52.466;13.436;2022-07-06T01:10:13;18.60;1.00
5150;DHT22;2593;52.466;13.436;2022-07-06T01:12:40;18.60;1.00
5150;DHT22;2593;52.466;13.436;2022-07-06T01:15:08;18.70;1.00
5150;DHT22;2593;52.466;13.436;2022-07-06T01:17:35;18.60;1.00
5150;DHT22;2593;52.466;13.436;2022-07-06T01:20:14;18.60;1.00
5150;DHT22;2593;52.466;13.436;2022-07-06T01:22:40;18.40;1.00
5150;DHT22;2593;52.466;13.436;2022-07-06T01:25:06;18.30;1.00
5150;DHT22;2593;52.466;13.436;2022-07-06T01:27:37;18.20;1.00
5150;DHT22;2593;52.466;13.436;2022-07-06T01:30:11;18.20;1.00
5150;DHT22;2593;52.466;13.436;2022-07-06T01:32:38;18.20;1.00
5150;DHT22;2593;52.466;13.436;2022-07-06T01:35:08;18.20;1.00
5150;DHT22;2593;52.466;13.436;2022-07-06T01:37:34;18.30;1.00
5150;DHT22;2593;52.466;13.436;2022-07-06T01:40:01;18.50;1.00
5150;DHT22;2593;52.466;13.436;2022-07-06T01:42:27;18.50;1.00
5150;DHT22;2593;52.466;13.436;2022-07-06T01:44:54;18.40;1.00
5150;DHT22;2593;52.466;13.436;2022-07-06T01:47:20;18.40;1.00
5150;DHT22;2593;52.466;13.436;2022-07-06T01:49:46;18.50;1.00
5150;DHT22;2593;52.466;13.436;2022-07-06T01:52:11;18.60;1.00
5150;DHT22;2593;52.466;13.436;2022-07-06T01:54:37;18.40;1.00
5150;DHT22;2593;52.466;13.436;2022-07-06T01:57:03;18.60;1.00
5150;DHT22;2593;52.466;13.436;2022-07-06T01:59:29;18.40;1.00
5150;DHT22;2593;52.466;13.436;2022-07-06T02:01:54;18.50;1.00
5150;DHT22;2593;52.466;13.436;2022-07-06T02:04:20;18.50;1.00
5150;DHT22;2593;52.466;13.436;2022-07-06T02:06:45;18.40;1.00
5150;DHT22;2593;52.466;13.436;2022-07-06T02:09:11;18.40;1.00
5150;DHT22;2593;52.466;13.436;2022-07-06T02:11:36;18.50;1.00
5150;DHT22;2593;52.466;13.436;2022-07-06T02:14:02;18.40;1.00
5150;DHT22;2593;52.466;13.436;2022-07-06T02:16:28;18.40;1.00
5150;DHT22;2593;52.466;13.436;2022-07-06T02:18:53;18.60;1.00
5150;DHT22;2593;52.466;13.436;2022-07-06T02:21:19;18.60;1.00
5150;DHT22;2593;52.466;13.436;2022-07-06T02:23:44;18.60;1.00
5150;DHT22;2593;52.466;13.436;2022-07-06T02:26:10;18.60;1.00
5150;DHT22;2593;52.466;13.436;2022-07-06T02:28:36;18.60;1.00
5150;DHT22;2593;52.466;13.436;2022-07-06T02:31:01;18.60;1.00
5150;DHT22;2593;52.466;13.436;2022-07-06T02:33:27;18.60;1.00
5150;DHT22;2593;52.466;13.436;2022-07-06T02:35:52;18.50;1.00
5150;DHT22;2593;52.466;13.436;2022-07-06T02:38:18;18.40;1.00
5150;DHT22;2593;52.466;13.436;2022-07-06T02:40:44;18.40;1.00
5150;DHT22;2593;52.466;13.436;2022-07-06T02:43:09;18.30;1.00
5150;DHT22;2593;52.466;13.436;2022-07-06T02:45:35;18.30;1.00
5150;DHT22;2593;52.466;13.436;2022-07-06T02:48:01;18.20;1.00
5150;DHT22;2593;52.466;13.436;2022-07-06T02:50:27;18.20;1.00
5150;DHT22;2593;52.466;13.436;2022-07-06T02:52:52;18.20;1.00
5150;DHT22;2593;52.466;13.436;2022-07-06T02:55:19;18.00;1.00
5150;DHT22;2593;52.466;13.436;2022-07-06T02:57:44;18.00;1.00
5150;DHT22;2593;52.466;13.436;2022-07-06T03:00:10;17.90;1.00
5150;DHT22;2593;52.466;13.436;2022-07-06T03:02:36;17.90;1.00
5150;DHT22;2593;52.466;13.436;2022-07-06T03:05:02;17.80;1.00
5150;DHT22;2593;52.466;13.436;2022-07-06T03:07:28;17.80;1.00
5150;DHT22;2593;52.466;13.436;2022-07-06T03:09:53;17.80;1.00
5150;DHT22;2593;52.466;13.436;2022-07-06T03:12:19;17.70;1.00
5150;DHT22;2593;52.466;13.436;2022-07-06T03:14:44;17.70;1.00
5150;DHT22;2593;52.466;13.436;2022-07-06T03:17:10;17.70;1.00
5150;DHT22;2593;52.466;13.436;2022-07-06T03:19:36;17.70;1.00
5150;DHT22;2593;52.466;13.436;2022-07-06T03:22:02;17.70;1.00
5150;DHT22;2593;52.466;13.436;2022-07-06T03:24:27;17.70;1.00
5150;DHT22;2593;52.466;13.436;2022-07-06T03:26:53;17.70;1.00
5150;DHT22;2593;52.466;13.436;2022-07-06T03:29:19;17.70;1.00
5150;DHT22;2593;52.466;13.436;2022-07-06T03:31:45;17.70;1.00
5150;DHT22;2593;52.466;13.436;2022-07-06T03:34:11;17.60;1.00
5150;DHT22;2593;52.466;13.436;2022-07-06T03:36:37;17.50;1.00
5150;DHT22;2593;52.466;13.436;2022-07-06T03:39:03;17.50;1.00
5150;DHT22;2593;52.466;13.436;2022-07-06T03:41:28;17.50;1.00
5150;DHT22;2593;52.466;13.436;2022-07-06T03:43:54;17.50;1.00
5150;DHT22;2593;52.466;13.436;2022-07-06T03:46:20;17.50;1.00
5150;DHT22;2593;52.466;13.436;2022-07-06T03:48:45;17.50;1.00
5150;DHT22;2593;52.466;13.436;2022-07-06T03:51:11;17.50;1.00
5150;DHT22;2593;52.466;13.436;2022-07-06T03:53:37;17.60;1.00
5150;DHT22;2593;52.466;13.436;2022-07-06T03:56:02;17.60;1.00
5150;DHT22;2593;52.466;13.436;2022-07-06T03:58:47;17.60;1.00
5150;DHT22;2593;52.466;13.436;2022-07-06T04:01:12;17.60;1.00
5150;DHT22;2593;52.466;13.436;2022-07-06T04:03:38;17.60;1.00
5150;DHT22;2593;52.466;13.436;2022-07-06T04:06:04;17.40;1.00
5150;DHT22;2593;52.466;13.436;2022-07-06T04:08:30;17.40;1.00
5150;DHT22;2593;52.466;13.436;2022-07-06T04:10:55;17.40;1.00
5150;DHT22;2593;52.466;13.436;2022-07-06T04:13:21;17.40;1.00
5150;DHT22;2593;52.466;13.436;2022-07-06T04:15:47;17.40;1.00
5150;DHT22;2593;52.466;13.436;2022-07-06T04:18:12;17.50;1.00
5150;DHT22;2593;52.466;13.436;2022-07-06T04:20:38;17.60;1.00
5150;DHT22;2593;52.466;13.436;2022-07-06T04:23:04;17.60;1.00
5150;DHT22;2593;52.466;13.436;2022-07-06T04:25:30;17.60;1.00
5150;DHT22;2593;52.466;13.436;2022-07-06T04:27:55;17.70;1.00
5150;DHT22;2593;52.466;13.436;2022-07-06T04:30:21;17.80;1.00
5150;DHT22;2593;52.466;13.436;2022-07-06T04:32:47;17.80;1.00
5150;DHT22;2593;52.466;13.436;2022-07-06T04:35:12;17.90;1.00
5150;DHT22;2593;52.466;13.436;2022-07-06T04:37:38;17.90;1.00
5150;DHT22;2593;52.466;13.436;2022-07-06T04:40:04;17.90;1.00
5150;DHT22;2593;52.466;13.436;2022-07-06T04:42:30;17.90;1.00
5150;DHT22;2593;52.466;13.436;2022-07-06T04:44:55;17.90;1.00
5150;DHT22;2593;52.466;13.436;2022-07-06T04:47:21;17.80;1.00
5150;DHT22;2593;52.466;13.436;2022-07-06T04:49:46;17.80;1.00
5150;DHT22;2593;52.466;13.436;2022-07-06T04:52:12;17.80;1.00
5150;DHT22;2593;52.466;13.436;2022-07-06T04:54:38;18.00;1.00
5150;DHT22;2593;52.466;13.436;2022-07-06T04:57:04;17.90;1.00
5150;DHT22;2593;52.466;13.436;2022-07-06T04:59:29;18.00;1.00
5150;DHT22;2593;52.466;13.436;2022-07-06T05:01:55;18.10;1.00
5150;DHT22;2593;52.466;13.436;2022-07-06T05:04:21;18.20;1.00
5150;DHT22;2593;52.466;13.436;2022-07-06T05:06:47;18.30;1.00
5150;DHT22;2593;52.466;13.436;2022-07-06T05:09:13;18.30;1.00
5150;DHT22;2593;52.466;13.436;2022-07-06T05:11:39;18.30;1.00
5150;DHT22;2593;52.466;13.436;2022-07-06T05:14:05;18.30;1.00
5150;DHT22;2593;52.466;13.436;2022-07-06T05:16:31;18.40;1.00
5150;DHT22;2593;52.466;13.436;2022-07-06T05:18:57;18.40;1.00
5150;DHT22;2593;52.466;13.436;2022-07-06T05:21:23;18.40;1.00
5150;DHT22;2593;52.466;13.436;2022-07-06T05:23:48;18.40;1.00
5150;DHT22;2593;52.466;13.436;2022-07-06T05:26:14;18.60;1.00
5150;DHT22;2593;52.466;13.436;2022-07-06T05:28:40;18.40;1.00
5150;DHT22;2593;52.466;13.436;2022-07-06T05:31:05;18.40;1.00
5150;DHT22;2593;52.466;13.436;2022-07-06T05:33:31;18.40;1.00
5150;DHT22;2593;52.466;13.436;2022-07-06T05:35:57;18.40;1.00
5150;DHT22;2593;52.466;13.436;2022-07-06T05:38:22;18.50;1.00
5150;DHT22;2593;52.466;13.436;2022-07-06T05:40:48;18.60;1.00
5150;DHT22;2593;52.466;13.436;2022-07-06T05:43:13;18.60;1.00
5150;DHT22;2593;52.466;13.436;2022-07-06T05:45:39;18.70;1.00
5150;DHT22;2593;52.466;13.436;2022-07-06T05:48:05;18.90;1.00
5150;DHT22;2593;52.466;13.436;2022-07-06T05:50:49;19.10;1.00
5150;DHT22;2593;52.466;13.436;2022-07-06T05:53:14;19.20;1.00
5150;DHT22;2593;52.466;13.436;2022-07-06T05:55:40;19.50;1.00
5150;DHT22;2593;52.466;13.436;2022-07-06T05:58:06;19.60;1.00
5150;DHT22;2593;52.466;13.436;2022-07-06T06:00:31;19.70;1.00
5150;DHT22;2593;52.466;13.436;2022-07-06T06:02:58;19.90;1.00
5150;DHT22;2593;52.466;13.436;2022-07-06T06:05:24;20.20;1.00
5150;DHT22;2593;52.466;13.436;2022-07-06T06:07:50;20.40;1.00
5150;DHT22;2593;52.466;13.436;2022-07-06T06:10:17;20.70;1.00
5150;DHT22;2593;52.466;13.436;2022-07-06T06:12:44;20.90;1.00
5150;DHT22;2593;52.466;13.436;2022-07-06T06:15:10;20.90;1.00
5150;DHT22;2593;52.466;13.436;2022-07-06T06:17:37;20.70;1.00
5150;DHT22;2593;52.466;13.436;2022-07-06T06:20:06;20.50;1.00
5150;DHT22;2593;52.466;13.436;2022-07-06T06:22:44;20.50;1.00
5150;DHT22;2593;52.466;13.436;2022-07-06T06:25:10;20.50;1.00
5150;DHT22;2593;52.466;13.436;2022-07-06T06:27:35;20.40;1.00
5150;DHT22;2593;52.466;13.436;2022-07-06T06:30:01;20.40;1.00
5150;DHT22;2593;52.466;13.436;2022-07-06T06:32:26;20.40;1.00
5150;DHT22;2593;52.466;13.436;2022-07-06T06:34:52;20.50;1.00
5150;DHT22;2593;52.466;13.436;2022-07-06T06:37:17;20.40;1.00
5150;DHT22;2593;52.466;13.436;2022-07-06T06:39:43;20.40;1.00
5150;DHT22;2593;52.466;13.436;2022-07-06T06:42:09;20.50;1.00
5150;DHT22;2593;52.466;13.436;2022-07-06T06:44:34;20.70;1.00
5150;DHT22;2593;52.466;13.436;2022-07-06T06:47:00;20.80;1.00
5150;DHT22;2593;52.466;13.436;2022-07-06T06:49:25;20.80;1.00
5150;DHT22;2593;52.466;13.436;2022-07-06T06:51:51;20.60;1.00
5150;DHT22;2593;52.466;13.436;2022-07-06T06:54:17;20.60;1.00
5150;DHT22;2593;52.466;13.436;2022-07-06T06:56:42;20.60;1.00
5150;DHT22;2593;52.466;13.436;2022-07-06T06:59:08;20.80;1.00
5150;DHT22;2593;52.466;13.436;2022-07-06T07:01:34;20.70;1.00
5150;DHT22;2593;52.466;13.436;2022-07-06T07:03:59;20.80;1.00
5150;DHT22;2593;52.466;13.436;2022-07-06T07:06:25;20.80;1.00
5150;DHT22;2593;52.466;13.436;2022-07-06T07:08:51;21.00;1.00
5150;DHT22;2593;52.466;13.436;2022-07-06T07:11:16;21.10;1.00
5150;DHT22;2593;52.466;13.436;2022-07-06T07:13:42;21.20;1.00
5150;DHT22;2593;52.466;13.436;2022-07-06T07:16:07;21.40;1.00
5150;DHT22;2593;52.466;13.436;2022-07-06T07:18:33;21.40;1.00
5150;DHT22;2593;52.466;13.436;2022-07-06T07:20:59;21.50;1.00
5150;DHT22;2593;52.466;13.436;2022-07-06T07:23:24;21.60;1.00
5150;DHT22;2593;52.466;13.436;2022-07-06T07:25:50;21.80;1.00
5150;DHT22;2593;52.466;13.436;2022-07-06T07:28:15;21.80;1.00
5150;DHT22;2593;52.466;13.436;2022-07-06T07:30:41;21.80;1.00
5150;DHT22;2593;52.466;13.436;2022-07-06T07:33:07;21.60;1.00
5150;DHT22;2593;52.466;13.436;2022-07-06T07:35:32;21.50;1.00
5150;DHT22;2593;52.466;13.436;2022-07-06T07:37:58;21.60;1.00
5150;DHT22;2593;52.466;13.436;2022-07-06T07:40:24;21.90;1.00
5150;DHT22;2593;52.466;13.436;2022-07-06T07:42:50;22.10;1.00
5150;DHT22;2593;52.466;13.436;2022-07-06T07:45:16;22.10;1.00
5150;DHT22;2593;52.466;13.436;2022-07-06T07:47:41;22.00;1.00
5150;DHT22;2593;52.466;13.436;2022-07-06T07:50:08;21.90;1.00
5150;DHT22;2593;52.466;13.436;2022-07-06T07:52:34;21.60;1.00
5150;DHT22;2593;52.466;13.436;2022-07-06T07:54:59;21.50;1.00
5150;DHT22;2593;52.466;13.436;2022-07-06T07:57:25;21.70;1.00
5150;DHT22;2593;52.466;13.436;2022-07-06T07:59:50;22.00;1.00
5150;DHT22;2593;52.466;13.436;2022-07-06T08:02:16;22.30;1.00
5150;DHT22;2593;52.466;13.436;2022-07-06T08:04:41;22.50;1.00
5150;DHT22;2593;52.466;13.436;2022-07-06T08:07:07;22.60;1.00
5150;DHT22;2593;52.466;13.436;2022-07-06T08:09:33;22.50;1.00
5150;DHT22;2593;52.466;13.436;2022-07-06T08:11:59;22.50;1.00
5150;DHT22;2593;52.466;13.436;2022-07-06T08:14:25;22.60;1.00
5150;DHT22;2593;52.466;13.436;2022-07-06T08:16:51;22.40;1.00
5150;DHT22;2593;52.466;13.436;2022-07-06T08:19:16;22.60;1.00
5150;DHT22;2593;52.466;13.436;2022-07-06T08:21:42;23.10;1.00
5150;DHT22;2593;52.466;13.436;2022-07-06T08:24:08;23.50;1.00
5150;DHT22;2593;52.466;13.436;2022-07-06T08:26:34;23.90;1.00
5150;DHT22;2593;52.466;13.436;2022-07-06T08:28:59;24.10;1.00
5150;DHT22;2593;52.466;13.436;2022-07-06T08:31:26;24.70;1.00
5150;DHT22;2593;52.466;13.436;2022-07-06T08:33:53;25.20;1.00
5150;DHT22;2593;52.466;13.436;2022-07-06T08:36:19;25.60;1.00
5150;DHT22;2593;52.466;13.436;2022-07-06T08:38:46;25.60;1.00
5150;DHT22;2593;52.466;13.436;2022-07-06T08:41:13;26.20;1.00
5150;DHT22;2593;52.466;13.436;2022-07-06T08:43:39;26.90;1.00
5150;DHT22;2593;52.466;13.436;2022-07-06T08:46:05;27.80;1.00
5150;DHT22;2593;52.466;13.436;2022-07-06T08:48:35;28.20;1.00
5150;DHT22;2593;52.466;13.436;2022-07-06T08:51:01;28.00;1.00
5150;DHT22;2593;52.466;13.436;2022-07-06T08:53:28;27.10;1.00
5150;DHT22;2593;52.466;13.436;2022-07-06T08:55:54;26.20;1.00
5150;DHT22;2593;52.466;13.436;2022-07-06T08:58:23;25.40;1.00
5150;DHT22;2593;52.466;13.436;2022-07-06T09:00:49;24.90;1.00
5150;DHT22;2593;52.466;13.436;2022-07-06T09:03:15;24.60;1.00
5150;DHT22;2593;52.466;13.436;2022-07-06T09:05:44;25.10;1.00
5150;DHT22;2593;52.466;13.436;2022-07-06T09:08:11;25.30;1.00
5150;DHT22;2593;52.466;13.436;2022-07-06T09:10:37;25.10;1.00
5150;DHT22;2593;52.466;13.436;2022-07-06T09:13:04;24.70;1.00
5150;DHT22;2593;52.466;13.436;2022-07-06T09:15:31;24.50;1.00
5150;DHT22;2593;52.466;13.436;2022-07-06T09:17:57;24.00;1.00
5150;DHT22;2593;52.466;13.436;2022-07-06T09:20:23;23.60;1.00
5150;DHT22;2593;52.466;13.436;2022-07-06T09:22:49;23.10;1.00
5150;DHT22;2593;52.466;13.436;2022-07-06T09:25:15;22.80;1.00
5150;DHT22;2593;52.466;13.436;2022-07-06T09:27:43;22.70;1.00
5150;DHT22;2593;52.466;13.436;2022-07-06T09:30:12;22.70;1.00
5150;DHT22;2593;52.466;13.436;2022-07-06T09:32:42;22.60;1.00
5150;DHT22;2593;52.466;13.436;2022-07-06T09:35:19;22.40;1.00
5150;DHT22;2593;52.466;13.436;2022-07-06T09:37:45;22.40;1.00
5150;DHT22;2593;52.466;13.436;2022-07-06T09:40:19;22.40;1.00
5150;DHT22;2593;52.466;13.436;2022-07-06T09:42:45;22.40;1.00
5150;DHT22;2593;52.466;13.436;2022-07-06T09:45:11;22.40;1.00
5150;DHT22;2593;52.466;13.436;2022-07-06T09:47:36;22.70;1.00
5150;DHT22;2593;52.466;13.436;2022-07-06T09:50:05;23.70;1.00
5150;DHT22;2593;52.466;13.436;2022-07-06T09:52:34;24.10;1.00
5150;DHT22;2593;52.466;13.436;2022-07-06T09:55:00;24.00;1.00
5150;DHT22;2593;52.466;13.436;2022-07-06T09:57:25;24.00;1.00
5150;DHT22;2593;52.466;13.436;2022-07-06T09:59:51;23.50;1.00
5150;DHT22;2593;52.466;13.436;2022-07-06T10:02:20;23.40;1.00
5150;DHT22;2593;52.466;13.436;2022-07-06T10:04:45;23.30;1.00
5150;DHT22;2593;52.466;13.436;2022-07-06T10:07:12;23.30;1.00
5150;DHT22;2593;52.466;13.436;2022-07-06T10:09:39;23.10;1.00
5150;DHT22;2593;52.466;13.436;2022-07-06T10:12:09;23.00;1.00
5150;DHT22;2593;52.466;13.436;2022-07-06T10:14:36;22.90;1.00
5150;DHT22;2593;52.466;13.436;2022-07-06T10:17:03;22.80;1.00
5150;DHT22;2593;52.466;13.436;2022-07-06T10:19:31;22.80;1.00
5150;DHT22;2593;52.466;13.436;2022-07-06T10:21:59;22.70;1.00
5150;DHT22;2593;52.466;13.436;2022-07-06T10:24:27;22.30;1.00
5150;DHT22;2593;52.466;13.436;2022-07-06T10:26:54;22.10;1.00
5150;DHT22;2593;52.466;13.436;2022-07-06T10:29:20;22.20;1.00
5150;DHT22;2593;52.466;13.436;2022-07-06T10:31:47;22.30;1.00
5150;DHT22;2593;52.466;13.436;2022-07-06T10:34:15;22.40;1.00
5150;DHT22;2593;52.466;13.436;2022-07-06T10:36:44;22.60;1.00
5150;DHT22;2593;52.466;13.436;2022-07-06T10:39:13;22.50;1.00
5150;DHT22;2593;52.466;13.436;2022-07-06T10:41:57;22.50;1.00
5150;DHT22;2593;52.466;13.436;2022-07-06T10:44:26;22.60;1.00
5150;DHT22;2593;52.466;13.436;2022-07-06T10:46:53;22.50;1.00
5150;DHT22;2593;52.466;13.436;2022-07-06T10:49:20;22.70;1.00
5150;DHT22;2593;52.466;13.436;2022-07-06T10:51:46;22.80;1.00
5150;DHT22;2593;52.466;13.436;2022-07-06T10:54:12;22.90;1.00
5150;DHT22;2593;52.466;13.436;2022-07-06T10:59:20;22.70;1.00
5150;DHT22;2593;52.466;13.436;2022-07-06T11:04:39;23.00;1.00
5150;DHT22;2593;52.466;13.436;2022-07-06T11:07:15;23.40;1.00
5150;DHT22;2593;52.466;13.436;2022-07-06T11:09:53;23.60;1.00
5150;DHT22;2593;52.466;13.436;2022-07-06T11:12:20;24.00;1.00
5150;DHT22;2593;52.466;13.436;2022-07-06T11:14:50;24.10;1.00
5150;DHT22;2593;52.466;13.436;2022-07-06T11:17:16;24.10;1.00
5150;DHT22;2593;52.466;13.436;2022-07-06T11:19:55;24.30;1.00
5150;DHT22;2593;52.466;13.436;2022-07-06T11:22:21;24.50;1.00
5150;DHT22;2593;52.466;13.436;2022-07-06T11:24:49;24.70;1.00
5150;DHT22;2593;52.466;13.436;2022-07-06T11:27:17;24.60;1.00
5150;DHT22;2593;52.466;13.436;2022-07-06T11:29:43;24.60;1.00
5150;DHT22;2593;52.466;13.436;2022-07-06T11:32:11;24.20;1.00
5150;DHT22;2593;52.466;13.436;2022-07-06T11:34:39;24.00;1.00
5150;DHT22;2593;52.466;13.436;2022-07-06T11:37:13;23.70;1.00
5150;DHT22;2593;52.466;13.436;2022-07-06T11:39:41;23.30;1.00
5150;DHT22;2593;52.466;13.436;2022-07-06T11:42:11;23.10;1.00
5150;DHT22;2593;52.466;13.436;2022-07-06T11:44:38;23.00;1.00
5150;DHT22;2593;52.466;13.436;2022-07-06T11:47:04;23.00;1.00
5150;DHT22;2593;52.466;13.436;2022-07-06T11:49:32;23.00;1.00
5150;DHT22;2593;52.466;13.436;2022-07-06T11:52:00;23.00;1.00
5150;DHT22;2593;52.466;13.436;2022-07-06T11:54:26;23.10;1.00
5150;DHT22;2593;52.466;13.436;2022-07-06T11:56:53;23.20;1.00
5150;DHT22;2593;52.466;13.436;2022-07-06T11:59:30;23.40;1.00
5150;DHT22;2593;52.466;13.436;2022-07-06T12:02:01;23.40;1.00
5150;DHT22;2593;52.466;13.436;2022-07-06T12:04:27;23.60;1.00
5150;DHT22;2593;52.466;13.436;2022-07-06T12:06:54;23.70;1.00
5150;DHT22;2593;52.466;13.436;2022-07-06T12:09:19;23.70;1.00
5150;DHT22;2593;52.466;13.436;2022-07-06T12:11:46;23.80;1.00
5150;DHT22;2593;52.466;13.436;2022-07-06T12:14:15;23.70;1.00
5150;DHT22;2593;52.466;13.436;2022-07-06T12:16:41;23.70;1.00
5150;DHT22;2593;52.466;13.436;2022-07-06T12:19:07;23.80;1.00
5150;DHT22;2593;52.466;13.436;2022-07-06T12:21:34;23.80;1.00
5150;DHT22;2593;52.466;13.436;2022-07-06T12:24:00;23.80;1.00
5150;DHT22;2593;52.466;13.436;2022-07-06T12:26:27;23.70;1.00
5150;DHT22;2593;52.466;13.436;2022-07-06T12:29:09;23.70;1.00
5150;DHT22;2593;52.466;13.436;2022-07-06T12:31:51;24.00;1.00
5150;DHT22;2593;52.466;13.436;2022-07-06T12:34:22;23.80;1.00
5150;DHT22;2593;52.466;13.436;2022-07-06T12:36:56;23.70;1.00
5150;DHT22;2593;52.466;13.436;2022-07-06T12:39:28;23.50;1.00
5150;DHT22;2593;52.466;13.436;2022-07-06T12:41:56;23.40;1.00
5150;DHT22;2593;52.466;13.436;2022-07-06T12:44:26;23.40;1.00
5150;DHT22;2593;52.466;13.436;2022-07-06T12:47:06;23.40;1.00
5150;DHT22;2593;52.466;13.436;2022-07-06T12:49:32;23.30;1.00
5150;DHT22;2593;52.466;13.436;2022-07-06T12:52:00;23.40;1.00
5150;DHT22;2593;52.466;13.436;2022-07-06T12:54:32;23.50;1.00
5150;DHT22;2593;52.466;13.436;2022-07-06T12:56:59;23.50;1.00
5150;DHT22;2593;52.466;13.436;2022-07-06T12:59:26;23.60;1.00
5150;DHT22;2593;52.466;13.436;2022-07-06T13:01:52;23.60;1.00
5150;DHT22;2593;52.466;13.436;2022-07-06T13:04:23;23.60;1.00
5150;DHT22;2593;52.466;13.436;2022-07-06T13:06:49;23.70;1.00
5150;DHT22;2593;52.466;13.436;2022-07-06T13:09:14;23.80;1.00
5150;DHT22;2593;52.466;13.436;2022-07-06T13:11:42;23.80;1.00
5150;DHT22;2593;52.466;13.436;2022-07-06T13:14:07;24.00;1.00
5150;DHT22;2593;52.466;13.436;2022-07-06T13:16:35;23.90;1.00
5150;DHT22;2593;52.466;13.436;2022-07-06T13:19:01;23.60;1.00
5150;DHT22;2593;52.466;13.436;2022-07-06T13:21:27;23.60;1.00
5150;DHT22;2593;52.466;13.436;2022-07-06T13:23:53;23.60;1.00
5150;DHT22;2593;52.466;13.436;2022-07-06T13:26:18;23.60;1.00
5150;DHT22;2593;52.466;13.436;2022-07-06T13:28:44;23.60;1.00
5150;DHT22;2593;52.466;13.436;2022-07-06T13:31:10;23.60;1.00
5150;DHT22;2593;52.466;13.436;2022-07-06T13:33:35;23.60;1.00
5150;DHT22;2593;52.466;13.436;2022-07-06T13:36:01;23.50;1.00
5150;DHT22;2593;52.466;13.436;2022-07-06T13:38:27;23.50;1.00
5150;DHT22;2593;52.466;13.436;2022-07-06T13:40:53;23.30;1.00
5150;DHT22;2593;52.466;13.436;2022-07-06T13:43:19;23.30;1.00
5150;DHT22;2593;52.466;13.436;2022-07-06T13:45:46;23.30;1.00
5150;DHT22;2593;52.466;13.436;2022-07-06T13:48:11;23.10;1.00
5150;DHT22;2593;52.466;13.436;2022-07-06T13:50:37;23.10;1.00
5150;DHT22;2593;52.466;13.436;2022-07-06T13:53:03;23.00;1.00
5150;DHT22;2593;52.466;13.436;2022-07-06T13:55:30;22.90;1.00
5150;DHT22;2593;52.466;13.436;2022-07-06T13:57:55;22.90;1.00
5150;DHT22;2593;52.466;13.436;2022-07-06T14:00:21;22.80;1.00
5150;DHT22;2593;52.466;13.436;2022-07-06T14:02:47;22.70;1.00
5150;DHT22;2593;52.466;13.436;2022-07-06T14:05:12;22.70;1.00
5150;DHT22;2593;52.466;13.436;2022-07-06T14:07:38;22.70;1.00
5150;DHT22;2593;52.466;13.436;2022-07-06T14:10:04;22.80;1.00
5150;DHT22;2593;52.466;13.436;2022-07-06T14:12:30;22.90;1.00
5150;DHT22;2593;52.466;13.436;2022-07-06T14:14:56;23.00;1.00
5150;DHT22;2593;52.466;13.436;2022-07-06T14:17:21;23.00;1.00
5150;DHT22;2593;52.466;13.436;2022-07-06T14:19:49;23.00;1.00
5150;DHT22;2593;52.466;13.436;2022-07-06T14:22:14;23.10;1.00
5150;DHT22;2593;52.466;13.436;2022-07-06T14:24:40;23.00;1.00
5150;DHT22;2593;52.466;13.436;2022-07-06T14:27:06;22.90;1.00
5150;DHT22;2593;52.466;13.436;2022-07-06T14:29:31;22.90;1.00
5150;DHT22;2593;52.466;13.436;2022-07-06T14:31:57;22.90;1.00
5150;DHT22;2593;52.466;13.436;2022-07-06T14:34:22;22.90;1.00
5150;DHT22;2593;52.466;13.436;2022-07-06T14:36:48;22.90;1.00
5150;DHT22;2593;52.466;13.436;2022-07-06T14:39:13;23.00;1.00
5150;DHT22;2593;52.466;13.436;2022-07-06T14:41:39;23.00;1.00
5150;DHT22;2593;52.466;13.436;2022-07-06T14:44:05;22.80;1.00
5150;DHT22;2593;52.466;13.436;2022-07-06T14:46:31;22.70;1.00
5150;DHT22;2593;52.466;13.436;2022-07-06T14:48:56;22.70;1.00
5150;DHT22;2593;52.466;13.436;2022-07-06T14:51:22;22.60;1.00
5150;DHT22;2593;52.466;13.436;2022-07-06T14:53:48;22.60;1.00
5150;DHT22;2593;52.466;13.436;2022-07-06T14:56:14;22.60;1.00
5150;DHT22;2593;52.466;13.436;2022-07-06T14:58:39;22.70;1.00
5150;DHT22;2593;52.466;13.436;2022-07-06T15:01:05;22.60;1.00
5150;DHT22;2593;52.466;13.436;2022-07-06T15:03:30;22.50;1.00
5150;DHT22;2593;52.466;13.436;2022-07-06T15:05:56;22.40;1.00
5150;DHT22;2593;52.466;13.436;2022-07-06T15:08:22;22.40;1.00
5150;DHT22;2593;52.466;13.436;2022-07-06T15:10:48;22.40;1.00
5150;DHT22;2593;52.466;13.436;2022-07-06T15:13:14;22.40;1.00
5150;DHT22;2593;52.466;13.436;2022-07-06T15:15:40;22.30;1.00
5150;DHT22;2593;52.466;13.436;2022-07-06T15:18:06;22.20;1.00
5150;DHT22;2593;52.466;13.436;2022-07-06T15:20:31;22.10;1.00
5150;DHT22;2593;52.466;13.436;2022-07-06T15:22:58;21.90;1.00
5150;DHT22;2593;52.466;13.436;2022-07-06T15:25:23;21.80;1.00
5150;DHT22;2593;52.466;13.436;2022-07-06T15:27:50;21.80;1.00
5150;DHT22;2593;52.466;13.436;2022-07-06T15:30:16;21.90;1.00
5150;DHT22;2593;52.466;13.436;2022-07-06T15:32:42;21.90;1.00
5150;DHT22;2593;52.466;13.436;2022-07-06T15:35:07;21.80;1.00
5150;DHT22;2593;52.466;13.436;2022-07-06T15:37:34;21.80;1.00
5150;DHT22;2593;52.466;13.436;2022-07-06T15:40:01;21.80;1.00
5150;DHT22;2593;52.466;13.436;2022-07-06T15:42:26;21.50;1.00
5150;DHT22;2593;52.466;13.436;2022-07-06T15:44:52;21.40;1.00
5150;DHT22;2593;52.466;13.436;2022-07-06T15:47:18;21.40;1.00
5150;DHT22;2593;52.466;13.436;2022-07-06T15:49:44;21.40;1.00
5150;DHT22;2593;52.466;13.436;2022-07-06T15:52:11;21.30;1.00
5150;DHT22;2593;52.466;13.436;2022-07-06T15:54:38;21.40;1.00
5150;DHT22;2593;52.466;13.436;2022-07-06T15:57:06;21.40;1.00
5150;DHT22;2593;52.466;13.436;2022-07-06T15:59:32;21.50;1.00
5150;DHT22;2593;52.466;13.436;2022-07-06T16:01:57;21.70;1.00
5150;DHT22;2593;52.466;13.436;2022-07-06T16:04:23;21.50;1.00